LOT6PK EPWR-EPWA
Flight info
| Callsign | LOT6PK |
|---|---|
| Flight time | 0h 35m |
| Altitude | 29000 |
| Route | LUNUK DCT OKENO DCT GOGUS DCT AGAVA |
| Aircraft | A320/M-SDE3FGHIRWY/LB1 |
Departure
| Time | 2026-05-08 20:01 |
|---|---|
| Airport | Copernicus Wrocław Airport (EPWR) |
Arrival
| Time | 2026-05-08 20:36 |
|---|---|
| Airport | Warsaw Chopin Airport (EPWA) |
| Time | Latitude | Longitude | Altitude | Speed | Heading |
|---|---|---|---|---|---|
| 2026-05-08 19:48 | 51.10869 | 16.87990 | 403 ft | 0 kts | 31° |
| 2026-05-08 19:53 | 51.10863 | 16.87984 | 401 ft | 4 kts | 25° |
| 2026-05-08 19:53 | 51.10839 | 16.87967 | 399 ft | 4 kts | 20° |
| 2026-05-08 19:54 | 51.10813 | 16.87958 | 401 ft | 4 kts | 350° |
| 2026-05-08 19:54 | 51.10795 | 16.87974 | 402 ft | 1 kts | 296° |
| 2026-05-08 19:54 | 51.10794 | 16.87975 | 402 ft | 0 kts | 296° |
| 2026-05-08 19:56 | 51.10799 | 16.87959 | 398 ft | 7 kts | 296° |
| 2026-05-08 19:57 | 51.10829 | 16.87864 | 401 ft | 9 kts | 296° |
| 2026-05-08 19:57 | 51.10865 | 16.87744 | 403 ft | 15 kts | 296° |
| 2026-05-08 19:57 | 51.10914 | 16.87588 | 403 ft | 16 kts | 296° |
| 2026-05-08 19:57 | 51.10938 | 16.87425 | 400 ft | 15 kts | 234° |
| 2026-05-08 19:58 | 51.10850 | 16.87343 | 403 ft | 18 kts | 206° |
| 2026-05-08 19:58 | 51.10708 | 16.87244 | 404 ft | 22 kts | 180° |
| 2026-05-08 19:58 | 51.10625 | 16.87419 | 403 ft | 23 kts | 117° |
| 2026-05-08 19:58 | 51.10545 | 16.87681 | 401 ft | 29 kts | 115° |
| 2026-05-08 19:59 | 51.10457 | 16.87974 | 403 ft | 29 kts | 115° |
| 2026-05-08 19:59 | 51.10368 | 16.88263 | 406 ft | 29 kts | 121° |
| 2026-05-08 19:59 | 51.10267 | 16.88573 | 405 ft | 36 kts | 116° |
| 2026-05-08 19:59 | 51.10148 | 16.88968 | 403 ft | 43 kts | 115° |
| 2026-05-08 20:00 | 51.10009 | 16.89417 | 406 ft | 47 kts | 115° |
| 2026-05-08 20:00 | 51.09900 | 16.89735 | 403 ft | 17 kts | 101° |
| 2026-05-08 20:00 | 51.09928 | 16.89745 | 403 ft | 7 kts | 275° |
| 2026-05-08 20:00 | 51.09965 | 16.89569 | 405 ft | 33 kts | 296° |
| 2026-05-08 20:01 | 51.10187 | 16.88867 | 403 ft | 106 kts | 296° |
| 2026-05-08 20:01 | 51.10600 | 16.87535 | 406 ft | 160 kts | 298° |
| 2026-05-08 20:01 | 51.11058 | 16.85937 | 1049 ft | 158 kts | 295° |
| 2026-05-08 20:01 | 51.11490 | 16.84320 | 1803 ft | 161 kts | 294° |
| 2026-05-08 20:02 | 51.11937 | 16.82592 | 2173 ft | 182 kts | 294° |
| 2026-05-08 20:02 | 51.12507 | 16.80653 | 2517 ft | 206 kts | 298° |
| 2026-05-08 20:02 | 51.13205 | 16.78516 | 2905 ft | 230 kts | 298° |
| 2026-05-08 20:02 | 51.13982 | 16.76143 | 3452 ft | 251 kts | 298° |
| 2026-05-08 20:03 | 51.14786 | 16.73638 | 4316 ft | 256 kts | 297° |
| 2026-05-08 20:03 | 51.15583 | 16.71094 | 5291 ft | 257 kts | 296° |
| 2026-05-08 20:03 | 51.16377 | 16.68520 | 6180 ft | 261 kts | 295° |
| 2026-05-08 20:03 | 51.17180 | 16.65897 | 7028 ft | 265 kts | 295° |
| 2026-05-08 20:04 | 51.17992 | 16.63232 | 7840 ft | 270 kts | 295° |
| 2026-05-08 20:04 | 51.18954 | 16.60680 | 8621 ft | 275 kts | 312° |
| 2026-05-08 20:04 | 51.20518 | 16.58899 | 9407 ft | 281 kts | 338° |
| 2026-05-08 20:04 | 51.22449 | 16.58382 | 10192 ft | 287 kts | 4° |
| 2026-05-08 20:05 | 51.24366 | 16.59299 | 10906 ft | 293 kts | 27° |
| 2026-05-08 20:05 | 51.26165 | 16.60868 | 11643 ft | 297 kts | 28° |
| 2026-05-08 20:05 | 51.27866 | 16.62924 | 11923 ft | 321 kts | 48° |
| 2026-05-08 20:05 | 51.28976 | 16.66152 | 12126 ft | 346 kts | 74° |
| 2026-05-08 20:06 | 51.29454 | 16.70039 | 12404 ft | 364 kts | 80° |
| 2026-05-08 20:06 | 51.29864 | 16.74079 | 12988 ft | 372 kts | 81° |
| 2026-05-08 20:06 | 51.30263 | 16.78194 | 13645 ft | 377 kts | 81° |
| 2026-05-08 20:06 | 51.30660 | 16.82367 | 14246 ft | 383 kts | 81° |
| 2026-05-08 20:07 | 51.31059 | 16.86595 | 14840 ft | 387 kts | 81° |
| 2026-05-08 20:07 | 51.31462 | 16.90869 | 15449 ft | 390 kts | 81° |
| 2026-05-08 20:07 | 51.31870 | 16.95184 | 16051 ft | 394 kts | 81° |
| 2026-05-08 20:07 | 51.32281 | 16.99545 | 16655 ft | 398 kts | 81° |
| 2026-05-08 20:08 | 51.32691 | 17.03879 | 17247 ft | 401 kts | 81° |
| 2026-05-08 20:08 | 51.33112 | 17.08300 | 17843 ft | 405 kts | 81° |
| 2026-05-08 20:08 | 51.33540 | 17.12781 | 18438 ft | 409 kts | 81° |
| 2026-05-08 20:08 | 51.33972 | 17.17296 | 18949 ft | 413 kts | 81° |
| 2026-05-08 20:09 | 51.34407 | 17.21850 | 19466 ft | 416 kts | 81° |
| 2026-05-08 20:09 | 51.34844 | 17.26438 | 20037 ft | 417 kts | 81° |
| 2026-05-08 20:09 | 51.35278 | 17.31027 | 20689 ft | 417 kts | 81° |
| 2026-05-08 20:09 | 51.35709 | 17.35607 | 21352 ft | 417 kts | 81° |
| 2026-05-08 20:10 | 51.36137 | 17.40189 | 22044 ft | 416 kts | 81° |
| 2026-05-08 20:10 | 51.36561 | 17.44758 | 22730 ft | 414 kts | 81° |
| 2026-05-08 20:10 | 51.36980 | 17.49308 | 23443 ft | 413 kts | 81° |
| 2026-05-08 20:10 | 51.37395 | 17.53839 | 24100 ft | 410 kts | 81° |
| 2026-05-08 20:11 | 51.37805 | 17.58341 | 24710 ft | 408 kts | 81° |
| 2026-05-08 20:11 | 51.38212 | 17.62817 | 25344 ft | 405 kts | 81° |
| 2026-05-08 20:11 | 51.38616 | 17.67260 | 25971 ft | 402 kts | 81° |
| 2026-05-08 20:11 | 51.39020 | 17.71716 | 26346 ft | 406 kts | 81° |
| 2026-05-08 20:12 | 51.39427 | 17.76207 | 26805 ft | 408 kts | 81° |
| 2026-05-08 20:12 | 51.39834 | 17.80708 | 27269 ft | 410 kts | 81° |
| 2026-05-08 20:12 | 51.40245 | 17.85253 | 27623 ft | 415 kts | 81° |
| 2026-05-08 20:12 | 51.40663 | 17.89875 | 27865 ft | 422 kts | 81° |
| 2026-05-08 20:13 | 51.41079 | 17.94494 | 28215 ft | 426 kts | 81° |
| 2026-05-08 20:13 | 51.41504 | 17.99228 | 28408 ft | 434 kts | 81° |
| 2026-05-08 20:13 | 51.41938 | 18.04064 | 28550 ft | 442 kts | 81° |
| 2026-05-08 20:13 | 51.42379 | 18.08982 | 28694 ft | 450 kts | 81° |
| 2026-05-08 20:14 | 51.42827 | 18.13975 | 28836 ft | 457 kts | 81° |
| 2026-05-08 20:14 | 51.43280 | 18.19051 | 28977 ft | 463 kts | 81° |
| 2026-05-08 20:14 | 51.43740 | 18.24190 | 29133 ft | 469 kts | 81° |
| 2026-05-08 20:14 | 51.44207 | 18.29404 | 29185 ft | 476 kts | 81° |
| 2026-05-08 20:15 | 51.45155 | 18.40019 | 29178 ft | 483 kts | 81° |
| 2026-05-08 20:15 | 51.46108 | 18.50705 | 29178 ft | 484 kts | 81° |
| 2026-05-08 20:16 | 51.47048 | 18.61325 | 29172 ft | 484 kts | 81° |
| 2026-05-08 20:16 | 51.47994 | 18.72018 | 29175 ft | 485 kts | 81° |
| 2026-05-08 20:17 | 51.48935 | 18.82731 | 29169 ft | 485 kts | 81° |
| 2026-05-08 20:17 | 51.49537 | 18.89626 | 29165 ft | 485 kts | 81° |
| 2026-05-08 20:18 | 51.50458 | 19.00197 | 29146 ft | 485 kts | 82° |
| 2026-05-08 20:18 | 51.51379 | 19.10795 | 28725 ft | 477 kts | 82° |
| 2026-05-08 20:19 | 51.52040 | 19.16001 | 27777 ft | 475 kts | 70° |
| 2026-05-08 20:19 | 51.53266 | 19.20923 | 26922 ft | 473 kts | 65° |
| 2026-05-08 20:19 | 51.54541 | 19.25767 | 26250 ft | 469 kts | 65° |
| 2026-05-08 20:19 | 51.55811 | 19.30561 | 25606 ft | 464 kts | 65° |
| 2026-05-08 20:20 | 51.57070 | 19.35312 | 24989 ft | 460 kts | 65° |
| 2026-05-08 20:20 | 51.58313 | 19.40010 | 24259 ft | 452 kts | 66° |
| 2026-05-08 20:20 | 51.59536 | 19.44654 | 23268 ft | 450 kts | 66° |
| 2026-05-08 20:20 | 51.60735 | 19.49222 | 22657 ft | 445 kts | 66° |
| 2026-05-08 20:21 | 51.61925 | 19.53784 | 22062 ft | 440 kts | 66° |
| 2026-05-08 20:21 | 51.63099 | 19.58309 | 21477 ft | 436 kts | 66° |
| 2026-05-08 20:21 | 51.64260 | 19.62787 | 20808 ft | 431 kts | 66° |
| 2026-05-08 20:21 | 51.65408 | 19.67216 | 20099 ft | 427 kts | 66° |
| 2026-05-08 20:22 | 51.66547 | 19.71606 | 19433 ft | 423 kts | 66° |
| 2026-05-08 20:22 | 51.67676 | 19.75965 | 18894 ft | 420 kts | 66° |
| 2026-05-08 20:22 | 51.68795 | 19.80297 | 18400 ft | 417 kts | 66° |
| 2026-05-08 20:22 | 51.69532 | 19.83153 | 18026 ft | 414 kts | 66° |
| 2026-05-08 20:23 | 51.71002 | 19.88865 | 17324 ft | 410 kts | 66° |
| 2026-05-08 20:23 | 51.72095 | 19.93107 | 16799 ft | 407 kts | 66° |
| 2026-05-08 20:23 | 51.73171 | 19.97297 | 16296 ft | 403 kts | 66° |
| 2026-05-08 20:23 | 51.74239 | 20.01464 | 15799 ft | 400 kts | 66° |
| 2026-05-08 20:24 | 51.75293 | 20.05595 | 15308 ft | 397 kts | 66° |
| 2026-05-08 20:24 | 51.76333 | 20.09689 | 14703 ft | 392 kts | 66° |
| 2026-05-08 20:24 | 51.77360 | 20.13737 | 14101 ft | 389 kts | 66° |
| 2026-05-08 20:24 | 51.78371 | 20.17722 | 13454 ft | 385 kts | 66° |
| 2026-05-08 20:25 | 51.79378 | 20.21706 | 12804 ft | 380 kts | 67° |
| 2026-05-08 20:25 | 51.80368 | 20.25631 | 12279 ft | 374 kts | 67° |
| 2026-05-08 20:25 | 51.81349 | 20.29514 | 11716 ft | 372 kts | 67° |
| 2026-05-08 20:25 | 51.82332 | 20.33403 | 10974 ft | 375 kts | 67° |
| 2026-05-08 20:26 | 51.83306 | 20.37266 | 10685 ft | 365 kts | 67° |
| 2026-05-08 20:26 | 51.84241 | 20.40984 | 10553 ft | 349 kts | 67° |
| 2026-05-08 20:26 | 51.85137 | 20.44554 | 10433 ft | 336 kts | 67° |
| 2026-05-08 20:26 | 51.85998 | 20.47989 | 10320 ft | 323 kts | 67° |
| 2026-05-08 20:27 | 51.86827 | 20.51301 | 10190 ft | 312 kts | 67° |
| 2026-05-08 20:27 | 51.87628 | 20.54501 | 10003 ft | 303 kts | 67° |
| 2026-05-08 20:27 | 51.88410 | 20.57634 | 9794 ft | 300 kts | 67° |
| 2026-05-08 20:27 | 51.89197 | 20.60779 | 9327 ft | 301 kts | 67° |
| 2026-05-08 20:28 | 51.89983 | 20.63928 | 8841 ft | 302 kts | 67° |
| 2026-05-08 20:28 | 51.90758 | 20.67051 | 8499 ft | 296 kts | 67° |
| 2026-05-08 20:28 | 51.91522 | 20.70140 | 7994 ft | 293 kts | 67° |
| 2026-05-08 20:28 | 51.92276 | 20.73189 | 7339 ft | 291 kts | 67° |
| 2026-05-08 20:29 | 51.93029 | 20.76228 | 6734 ft | 288 kts | 67° |
| 2026-05-08 20:29 | 51.93776 | 20.79246 | 6273 ft | 288 kts | 68° |
| 2026-05-08 20:29 | 51.94268 | 20.81235 | 5990 ft | 287 kts | 67° |
| 2026-05-08 20:29 | 51.95255 | 20.85245 | 5454 ft | 281 kts | 68° |
| 2026-05-08 20:30 | 51.95732 | 20.87190 | 5010 ft | 280 kts | 68° |
| 2026-05-08 20:30 | 51.96444 | 20.90097 | 4586 ft | 269 kts | 68° |
| 2026-05-08 20:30 | 51.97113 | 20.92829 | 4305 ft | 255 kts | 67° |
| 2026-05-08 20:30 | 51.97755 | 20.95460 | 4072 ft | 249 kts | 67° |
| 2026-05-08 20:31 | 51.98388 | 20.98057 | 3941 ft | 242 kts | 67° |
| 2026-05-08 20:31 | 51.98995 | 21.00543 | 3837 ft | 233 kts | 67° |
| 2026-05-08 20:31 | 51.99584 | 21.02947 | 3721 ft | 224 kts | 67° |
| 2026-05-08 20:31 | 52.00145 | 21.05246 | 3628 ft | 215 kts | 67° |
| 2026-05-08 20:32 | 52.00828 | 21.07308 | 3561 ft | 200 kts | 44° |
| 2026-05-08 20:32 | 52.01956 | 21.08400 | 3400 ft | 186 kts | 11° |
| 2026-05-08 20:32 | 52.03211 | 21.08301 | 3151 ft | 181 kts | 338° |
| 2026-05-08 20:32 | 52.04332 | 21.07378 | 2924 ft | 181 kts | 331° |
| 2026-05-08 20:33 | 52.05444 | 21.06410 | 2683 ft | 181 kts | 331° |
| 2026-05-08 20:33 | 52.06539 | 21.05459 | 2439 ft | 179 kts | 332° |
| 2026-05-08 20:33 | 52.07608 | 21.04529 | 2194 ft | 169 kts | 332° |
| 2026-05-08 20:33 | 52.08589 | 21.03675 | 1984 ft | 152 kts | 332° |
| 2026-05-08 20:34 | 52.09491 | 21.02891 | 1780 ft | 143 kts | 332° |
| 2026-05-08 20:34 | 52.10358 | 21.02135 | 1588 ft | 140 kts | 332° |
| 2026-05-08 20:34 | 52.12063 | 21.00651 | 1188 ft | 138 kts | 332° |
| 2026-05-08 20:35 | 52.12911 | 20.99911 | 986 ft | 137 kts | 332° |
| 2026-05-08 20:35 | 52.13741 | 20.99187 | 801 ft | 137 kts | 331° |
| 2026-05-08 20:35 | 52.14577 | 20.98450 | 613 ft | 136 kts | 332° |
| 2026-05-08 20:35 | 52.15392 | 20.97742 | 410 ft | 130 kts | 331° |
| 2026-05-08 20:36 | 52.16130 | 20.97101 | 339 ft | 103 kts | 330° |
| 2026-05-08 20:36 | 52.16645 | 20.96635 | 339 ft | 71 kts | 334° |
| 2026-05-08 20:36 | 52.16999 | 20.96509 | 336 ft | 30 kts | 359° |
| 2026-05-08 20:36 | 52.17082 | 20.96558 | 336 ft | 7 kts | 48° |
| 2026-05-08 20:37 | 52.17088 | 20.96570 | 338 ft | 0 kts | 56° |
| 2026-05-08 20:37 | 52.17089 | 20.96573 | 339 ft | 2 kts | 56° |
| 2026-05-08 20:37 | 52.17101 | 20.96604 | 336 ft | 3 kts | 58° |
| 2026-05-08 20:38 | 52.17144 | 20.96731 | 337 ft | 20 kts | 60° |
| 2026-05-08 20:38 | 52.17134 | 20.96853 | 336 ft | 6 kts | 153° |
| 2026-05-08 20:38 | 52.17062 | 20.96924 | 337 ft | 18 kts | 150° |
| 2026-05-08 20:38 | 52.16924 | 20.97042 | 336 ft | 21 kts | 145° |
| 2026-05-08 20:39 | 52.16827 | 20.97129 | 337 ft | 12 kts | 151° |
| 2026-05-08 20:39 | 52.16804 | 20.97207 | 337 ft | 7 kts | 88° |
| 2026-05-08 20:39 | 52.16812 | 20.97277 | 337 ft | 6 kts | 77° |
| 2026-05-08 20:39 | 52.16815 | 20.97297 | 339 ft | 1 kts | 77° |
| 2026-05-08 20:40 | 52.16816 | 20.97308 | 339 ft | 1 kts | 78° |
| 2026-05-08 20:40 | 52.16817 | 20.97312 | 339 ft | 0 kts | 78° |
| 2026-05-08 20:40 | 52.16817 | 20.97315 | 339 ft | 0 kts | 77° |